sensor_id;sensor_type;location;lat;lon;timestamp;P1;durP1;ratioP1;P2;durP2;ratioP2
52922;SDS011;38796;42.702;23.306;2022-09-09T00:00:16;12.17;;;7.10;;
52922;SDS011;38796;42.702;23.306;2022-09-09T00:02:17;12.15;;;6.90;;
52922;SDS011;38796;42.702;23.306;2022-09-09T00:04:18;16.80;;;7.27;;
52922;SDS011;38796;42.702;23.306;2022-09-09T00:06:21;9.53;;;7.23;;
52922;SDS011;38796;42.702;23.306;2022-09-09T00:08:20;10.93;;;7.43;;
52922;SDS011;38796;42.702;23.306;2022-09-09T00:10:20;13.97;;;7.40;;
52922;SDS011;38796;42.702;23.306;2022-09-09T00:12:22;9.50;;;7.87;;
52922;SDS011;38796;42.702;23.306;2022-09-09T00:14:23;11.10;;;8.10;;
52922;SDS011;38796;42.702;23.306;2022-09-09T00:16:25;11.57;;;7.47;;
52922;SDS011;38796;42.702;23.306;2022-09-09T00:18:24;15.77;;;7.70;;
52922;SDS011;38796;42.702;23.306;2022-09-09T00:20:28;11.90;;;8.93;;
52922;SDS011;38796;42.702;23.306;2022-09-09T00:22:27;14.60;;;8.20;;
52922;SDS011;38796;42.702;23.306;2022-09-09T00:24:26;10.37;;;9.00;;
52922;SDS011;38796;42.702;23.306;2022-09-09T00:26:27;13.87;;;8.50;;
52922;SDS011;38796;42.702;23.306;2022-09-09T00:28:28;12.75;;;9.27;;
52922;SDS011;38796;42.702;23.306;2022-09-09T00:30:31;9.63;;;7.60;;
52922;SDS011;38796;42.702;23.306;2022-09-09T00:32:30;12.87;;;8.50;;
52922;SDS011;38796;42.702;23.306;2022-09-09T00:34:29;12.97;;;8.97;;
52922;SDS011;38796;42.702;23.306;2022-09-09T00:36:28;14.33;;;7.93;;
52922;SDS011;38796;42.702;23.306;2022-09-09T00:38:28;9.10;;;8.27;;
52922;SDS011;38796;42.702;23.306;2022-09-09T00:40:32;16.63;;;8.07;;
52922;SDS011;38796;42.702;23.306;2022-09-09T00:42:33;10.00;;;8.27;;
52922;SDS011;38796;42.702;23.306;2022-09-09T00:44:35;13.45;;;8.20;;
52922;SDS011;38796;42.702;23.306;2022-09-09T00:46:41;14.00;;;7.83;;
52922;SDS011;38796;42.702;23.306;2022-09-09T00:48:43;8.67;;;7.90;;
52922;SDS011;38796;42.702;23.306;2022-09-09T00:50:45;9.02;;;7.43;;
52922;SDS011;38796;42.702;23.306;2022-09-09T00:52:46;9.50;;;8.10;;
52922;SDS011;38796;42.702;23.306;2022-09-09T00:54:51;11.27;;;7.88;;
52922;SDS011;38796;42.702;23.306;2022-09-09T00:56:55;14.52;;;8.00;;
52922;SDS011;38796;42.702;23.306;2022-09-09T00:59:07;9.73;;;7.67;;
52922;SDS011;38796;42.702;23.306;2022-09-09T01:01:09;7.70;;;7.00;;
52922;SDS011;38796;42.702;23.306;2022-09-09T01:03:12;18.20;;;7.17;;
52922;SDS011;38796;42.702;23.306;2022-09-09T01:05:17;8.20;;;7.30;;
52922;SDS011;38796;42.702;23.306;2022-09-09T01:07:18;10.13;;;6.78;;
52922;SDS011;38796;42.702;23.306;2022-09-09T01:09:17;11.13;;;7.40;;
52922;SDS011;38796;42.702;23.306;2022-09-09T01:11:20;10.00;;;7.20;;
52922;SDS011;38796;42.702;23.306;2022-09-09T01:13:20;12.00;;;7.97;;
52922;SDS011;38796;42.702;23.306;2022-09-09T01:15:21;8.33;;;7.60;;
52922;SDS011;38796;42.702;23.306;2022-09-09T01:17:22;7.97;;;6.93;;
52922;SDS011;38796;42.702;23.306;2022-09-09T01:19:34;9.03;;;8.03;;
52922;SDS011;38796;42.702;23.306;2022-09-09T01:21:39;12.03;;;7.63;;
52922;SDS011;38796;42.702;23.306;2022-09-09T01:23:49;8.40;;;7.47;;
52922;SDS011;38796;42.702;23.306;2022-09-09T01:28:22;9.47;;;6.73;;
52922;SDS011;38796;42.702;23.306;2022-09-09T01:30:27;9.50;;;8.13;;
52922;SDS011;38796;42.702;23.306;2022-09-09T01:32:37;10.80;;;7.83;;
52922;SDS011;38796;42.702;23.306;2022-09-09T01:34:38;8.63;;;7.53;;
52922;SDS011;38796;42.702;23.306;2022-09-09T01:36:38;10.23;;;8.10;;
52922;SDS011;38796;42.702;23.306;2022-09-09T01:38:36;10.63;;;8.37;;
52922;SDS011;38796;42.702;23.306;2022-09-09T01:40:34;11.50;;;8.60;;
52922;SDS011;38796;42.702;23.306;2022-09-09T01:42:33;12.63;;;9.10;;
52922;SDS011;38796;42.702;23.306;2022-09-09T01:44:32;9.97;;;9.07;;
52922;SDS011;38796;42.702;23.306;2022-09-09T01:46:31;10.53;;;9.03;;
52922;SDS011;38796;42.702;23.306;2022-09-09T01:48:30;14.37;;;8.60;;
52922;SDS011;38796;42.702;23.306;2022-09-09T01:50:34;12.43;;;8.50;;
52922;SDS011;38796;42.702;23.306;2022-09-09T01:52:32;11.30;;;8.20;;
52922;SDS011;38796;42.702;23.306;2022-09-09T01:54:34;11.23;;;7.83;;
52922;SDS011;38796;42.702;23.306;2022-09-09T01:56:40;10.80;;;7.75;;
52922;SDS011;38796;42.702;23.306;2022-09-09T01:58:45;12.38;;;8.85;;
52922;SDS011;38796;42.702;23.306;2022-09-09T02:00:48;10.20;;;8.23;;
52922;SDS011;38796;42.702;23.306;2022-09-09T02:02:52;10.38;;;8.63;;
52922;SDS011;38796;42.702;23.306;2022-09-09T02:05:04;9.97;;;8.07;;
52922;SDS011;38796;42.702;23.306;2022-09-09T02:07:05;14.77;;;9.20;;
52922;SDS011;38796;42.702;23.306;2022-09-09T02:09:04;10.07;;;8.60;;
52922;SDS011;38796;42.702;23.306;2022-09-09T02:11:04;12.33;;;9.13;;
52922;SDS011;38796;42.702;23.306;2022-09-09T02:13:18;12.30;;;8.87;;
52922;SDS011;38796;42.702;23.306;2022-09-09T02:15:18;10.27;;;9.23;;
52922;SDS011;38796;42.702;23.306;2022-09-09T02:17:21;10.93;;;9.60;;
52922;SDS011;38796;42.702;23.306;2022-09-09T02:19:29;12.97;;;8.63;;
52922;SDS011;38796;42.702;23.306;2022-09-09T02:21:49;13.53;;;9.53;;
52922;SDS011;38796;42.702;23.306;2022-09-09T02:23:47;12.47;;;9.13;;
52922;SDS011;38796;42.702;23.306;2022-09-09T02:25:49;10.73;;;9.57;;
52922;SDS011;38796;42.702;23.306;2022-09-09T02:27:51;10.17;;;8.80;;
52922;SDS011;38796;42.702;23.306;2022-09-09T02:29:50;10.57;;;9.47;;
52922;SDS011;38796;42.702;23.306;2022-09-09T02:32:01;12.07;;;9.43;;
52922;SDS011;38796;42.702;23.306;2022-09-09T02:34:04;14.73;;;9.47;;
52922;SDS011;38796;42.702;23.306;2022-09-09T02:36:03;13.73;;;9.47;;
52922;SDS011;38796;42.702;23.306;2022-09-09T02:38:05;10.27;;;9.37;;
52922;SDS011;38796;42.702;23.306;2022-09-09T02:40:05;13.53;;;9.40;;
52922;SDS011;38796;42.702;23.306;2022-09-09T02:42:06;16.47;;;10.40;;
52922;SDS011;38796;42.702;23.306;2022-09-09T02:44:05;11.50;;;9.73;;
52922;SDS011;38796;42.702;23.306;2022-09-09T02:46:08;12.03;;;9.80;;
52922;SDS011;38796;42.702;23.306;2022-09-09T02:48:10;12.63;;;9.83;;
52922;SDS011;38796;42.702;23.306;2022-09-09T02:50:15;12.50;;;10.20;;
52922;SDS011;38796;42.702;23.306;2022-09-09T02:52:15;15.43;;;9.97;;
52922;SDS011;38796;42.702;23.306;2022-09-09T02:54:17;13.90;;;10.00;;
52922;SDS011;38796;42.702;23.306;2022-09-09T02:56:19;15.30;;;9.93;;
52922;SDS011;38796;42.702;23.306;2022-09-09T02:58:19;16.33;;;9.60;;
52922;SDS011;38796;42.702;23.306;2022-09-09T03:00:30;16.37;;;9.77;;
52922;SDS011;38796;42.702;23.306;2022-09-09T03:02:31;15.63;;;10.40;;
52922;SDS011;38796;42.702;23.306;2022-09-09T03:04:33;11.43;;;9.80;;
52922;SDS011;38796;42.702;23.306;2022-09-09T03:06:33;13.37;;;9.10;;
52922;SDS011;38796;42.702;23.306;2022-09-09T03:08:43;10.20;;;9.13;;
52922;SDS011;38796;42.702;23.306;2022-09-09T03:10:50;16.93;;;10.10;;
52922;SDS011;38796;42.702;23.306;2022-09-09T03:12:50;10.90;;;9.73;;
52922;SDS011;38796;42.702;23.306;2022-09-09T03:14:48;11.03;;;9.40;;
52922;SDS011;38796;42.702;23.306;2022-09-09T03:16:46;12.57;;;10.37;;
52922;SDS011;38796;42.702;23.306;2022-09-09T03:18:45;11.50;;;10.10;;
52922;SDS011;38796;42.702;23.306;2022-09-09T03:20:43;11.53;;;9.97;;
52922;SDS011;38796;42.702;23.306;2022-09-09T03:22:44;15.80;;;10.43;;
52922;SDS011;38796;42.702;23.306;2022-09-09T03:24:42;12.73;;;9.77;;
52922;SDS011;38796;42.702;23.306;2022-09-09T03:26:40;16.13;;;10.30;;
52922;SDS011;38796;42.702;23.306;2022-09-09T03:28:44;14.00;;;9.30;;
52922;SDS011;38796;42.702;23.306;2022-09-09T03:30:46;13.70;;;9.90;;
52922;SDS011;38796;42.702;23.306;2022-09-09T03:32:45;15.97;;;10.33;;
52922;SDS011;38796;42.702;23.306;2022-09-09T03:34:45;15.43;;;10.80;;
52922;SDS011;38796;42.702;23.306;2022-09-09T03:36:46;12.57;;;9.87;;
52922;SDS011;38796;42.702;23.306;2022-09-09T03:38:46;18.70;;;10.25;;
52922;SDS011;38796;42.702;23.306;2022-09-09T03:40:48;11.50;;;9.93;;
52922;SDS011;38796;42.702;23.306;2022-09-09T03:42:47;11.47;;;10.30;;
52922;SDS011;38796;42.702;23.306;2022-09-09T03:44:47;13.80;;;10.30;;
52922;SDS011;38796;42.702;23.306;2022-09-09T03:46:47;11.57;;;10.23;;
52922;SDS011;38796;42.702;23.306;2022-09-09T03:48:46;13.20;;;10.10;;
52922;SDS011;38796;42.702;23.306;2022-09-09T03:50:44;11.53;;;10.07;;
52922;SDS011;38796;42.702;23.306;2022-09-09T03:52:42;13.10;;;9.77;;
52922;SDS011;38796;42.702;23.306;2022-09-09T03:54:48;12.67;;;10.57;;
52922;SDS011;38796;42.702;23.306;2022-09-09T03:56:46;13.57;;;10.57;;
52922;SDS011;38796;42.702;23.306;2022-09-09T03:58:44;15.07;;;10.63;;
52922;SDS011;38796;42.702;23.306;2022-09-09T04:00:42;11.10;;;9.90;;
52922;SDS011;38796;42.702;23.306;2022-09-09T04:02:41;10.63;;;9.53;;
52922;SDS011;38796;42.702;23.306;2022-09-09T04:04:43;10.47;;;9.30;;
52922;SDS011;38796;42.702;23.306;2022-09-09T04:06:41;12.10;;;9.67;;
52922;SDS011;38796;42.702;23.306;2022-09-09T04:08:39;10.60;;;9.50;;
52922;SDS011;38796;42.702;23.306;2022-09-09T04:10:39;17.47;;;10.57;;
52922;SDS011;38796;42.702;23.306;2022-09-09T04:12:38;16.63;;;10.37;;
52922;SDS011;38796;42.702;23.306;2022-09-09T04:14:36;24.07;;;9.90;;
52922;SDS011;38796;42.702;23.306;2022-09-09T04:16:35;17.00;;;11.30;;
52922;SDS011;38796;42.702;23.306;2022-09-09T04:18:34;14.00;;;10.23;;
52922;SDS011;38796;42.702;23.306;2022-09-09T04:20:32;16.57;;;10.40;;
52922;SDS011;38796;42.702;23.306;2022-09-09T04:22:31;11.67;;;9.60;;
52922;SDS011;38796;42.702;23.306;2022-09-09T04:24:29;17.03;;;10.43;;
52922;SDS011;38796;42.702;23.306;2022-09-09T04:26:31;11.13;;;9.87;;
52922;SDS011;38796;42.702;23.306;2022-09-09T04:28:30;13.93;;;10.13;;
52922;SDS011;38796;42.702;23.306;2022-09-09T04:30:28;10.13;;;9.03;;
52922;SDS011;38796;42.702;23.306;2022-09-09T04:32:26;12.27;;;8.83;;
52922;SDS011;38796;42.702;23.306;2022-09-09T04:34:24;10.40;;;8.73;;
52922;SDS011;38796;42.702;23.306;2022-09-09T04:36:24;16.27;;;8.37;;
52922;SDS011;38796;42.702;23.306;2022-09-09T04:38:26;17.00;;;8.63;;
52922;SDS011;38796;42.702;23.306;2022-09-09T04:40:25;18.43;;;8.77;;
52922;SDS011;38796;42.702;23.306;2022-09-09T04:42:24;13.07;;;7.40;;
52922;SDS011;38796;42.702;23.306;2022-09-09T04:44:24;11.80;;;8.10;;
52922;SDS011;38796;42.702;23.306;2022-09-09T04:46:23;11.83;;;7.53;;
52922;SDS011;38796;42.702;23.306;2022-09-09T04:48:22;12.87;;;8.57;;
52922;SDS011;38796;42.702;23.306;2022-09-09T04:50:21;12.23;;;8.30;;
52922;SDS011;38796;42.702;23.306;2022-09-09T04:52:27;18.10;;;9.10;;
52922;SDS011;38796;42.702;23.306;2022-09-09T04:54:25;14.00;;;8.50;;
52922;SDS011;38796;42.702;23.306;2022-09-09T04:56:23;24.20;;;8.70;;
52922;SDS011;38796;42.702;23.306;2022-09-09T04:58:27;18.13;;;8.30;;
52922;SDS011;38796;42.702;23.306;2022-09-09T05:00:25;25.30;;;9.20;;
52922;SDS011;38796;42.702;23.306;2022-09-09T05:02:24;21.33;;;8.90;;
52922;SDS011;38796;42.702;23.306;2022-09-09T05:04:27;12.65;;;7.80;;
52922;SDS011;38796;42.702;23.306;2022-09-09T05:06:25;15.87;;;7.77;;
52922;SDS011;38796;42.702;23.306;2022-09-09T05:08:27;17.07;;;7.23;;
52922;SDS011;38796;42.702;23.306;2022-09-09T05:10:26;9.10;;;6.93;;
52922;SDS011;38796;42.702;23.306;2022-09-09T05:12:24;12.03;;;6.67;;
52922;SDS011;38796;42.702;23.306;2022-09-09T05:14:25;19.63;;;7.33;;
52922;SDS011;38796;42.702;23.306;2022-09-09T05:16:23;17.50;;;8.73;;
52922;SDS011;38796;42.702;23.306;2022-09-09T05:18:22;13.40;;;8.70;;
52922;SDS011;38796;42.702;23.306;2022-09-09T05:20:20;17.00;;;7.67;;
52922;SDS011;38796;42.702;23.306;2022-09-09T05:22:18;11.17;;;7.30;;
52922;SDS011;38796;42.702;23.306;2022-09-09T05:24:17;15.07;;;8.10;;
52922;SDS011;38796;42.702;23.306;2022-09-09T05:26:21;18.83;;;8.70;;
52922;SDS011;38796;42.702;23.306;2022-09-09T05:28:21;13.73;;;7.93;;
52922;SDS011;38796;42.702;23.306;2022-09-09T05:30:21;16.73;;;7.70;;
52922;SDS011;38796;42.702;23.306;2022-09-09T05:32:20;13.03;;;7.23;;
52922;SDS011;38796;42.702;23.306;2022-09-09T05:34:18;22.70;;;7.20;;
52922;SDS011;38796;42.702;23.306;2022-09-09T05:36:19;15.03;;;7.57;;
52922;SDS011;38796;42.702;23.306;2022-09-09T05:38:20;14.27;;;6.70;;
52922;SDS011;38796;42.702;23.306;2022-09-09T05:40:25;11.10;;;8.20;;
52922;SDS011;38796;42.702;23.306;2022-09-09T05:42:23;19.13;;;8.43;;
52922;SDS011;38796;42.702;23.306;2022-09-09T05:44:21;20.37;;;8.47;;
52922;SDS011;38796;42.702;23.306;2022-09-09T05:46:22;17.13;;;7.67;;
52922;SDS011;38796;42.702;23.306;2022-09-09T05:48:23;10.93;;;8.00;;
52922;SDS011;38796;42.702;23.306;2022-09-09T05:50:21;21.13;;;8.70;;
52922;SDS011;38796;42.702;23.306;2022-09-09T05:52:21;10.57;;;7.47;;
52922;SDS011;38796;42.702;23.306;2022-09-09T05:54:19;12.20;;;7.20;;
52922;SDS011;38796;42.702;23.306;2022-09-09T05:56:20;14.13;;;8.00;;
52922;SDS011;38796;42.702;23.306;2022-09-09T05:58:21;17.67;;;7.17;;
52922;SDS011;38796;42.702;23.306;2022-09-09T06:00:19;14.73;;;8.60;;
52922;SDS011;38796;42.702;23.306;2022-09-09T06:02:19;20.97;;;8.23;;
52922;SDS011;38796;42.702;23.306;2022-09-09T06:04:17;15.00;;;7.53;;
52922;SDS011;38796;42.702;23.306;2022-09-09T06:06:19;15.53;;;7.17;;
52922;SDS011;38796;42.702;23.306;2022-09-09T06:08:18;14.70;;;6.73;;
52922;SDS011;38796;42.702;23.306;2022-09-09T06:10:16;20.07;;;7.63;;
52922;SDS011;38796;42.702;23.306;2022-09-09T06:12:15;13.23;;;7.40;;
52922;SDS011;38796;42.702;23.306;2022-09-09T06:14:13;10.13;;;6.83;;
52922;SDS011;38796;42.702;23.306;2022-09-09T06:16:15;19.90;;;7.80;;
52922;SDS011;38796;42.702;23.306;2022-09-09T06:18:14;18.00;;;6.93;;
52922;SDS011;38796;42.702;23.306;2022-09-09T06:20:15;21.03;;;7.67;;
52922;SDS011;38796;42.702;23.306;2022-09-09T06:22:13;12.53;;;7.47;;
52922;SDS011;38796;42.702;23.306;2022-09-09T06:24:11;23.10;;;7.27;;
52922;SDS011;38796;42.702;23.306;2022-09-09T06:26:14;12.20;;;7.10;;
52922;SDS011;38796;42.702;23.306;2022-09-09T06:28:14;16.30;;;8.97;;
52922;SDS011;38796;42.702;23.306;2022-09-09T06:30:14;10.67;;;6.70;;
52922;SDS011;38796;42.702;23.306;2022-09-09T06:32:14;23.53;;;12.43;;
52922;SDS011;38796;42.702;23.306;2022-09-09T06:34:14;15.47;;;6.47;;
52922;SDS011;38796;42.702;23.306;2022-09-09T06:36:16;18.55;;;12.57;;
52922;SDS011;38796;42.702;23.306;2022-09-09T06:38:15;15.93;;;7.17;;
52922;SDS011;38796;42.702;23.306;2022-09-09T06:40:15;20.67;;;11.43;;
52922;SDS011;38796;42.702;23.306;2022-09-09T06:42:13;10.23;;;6.73;;
52922;SDS011;38796;42.702;23.306;2022-09-09T06:44:18;31.97;;;21.03;;
52922;SDS011;38796;42.702;23.306;2022-09-09T06:46:16;13.50;;;8.93;;
52922;SDS011;38796;42.702;23.306;2022-09-09T06:48:15;17.37;;;6.33;;
52922;SDS011;38796;42.702;23.306;2022-09-09T06:50:15;16.43;;;6.80;;
52922;SDS011;38796;42.702;23.306;2022-09-09T06:52:13;10.37;;;5.17;;
52922;SDS011;38796;42.702;23.306;2022-09-09T06:54:12;10.10;;;4.20;;
52922;SDS011;38796;42.702;23.306;2022-09-09T06:56:17;7.50;;;3.03;;
52922;SDS011;38796;42.702;23.306;2022-09-09T06:58:15;11.27;;;5.03;;
52922;SDS011;38796;42.702;23.306;2022-09-09T07:00:13;11.83;;;4.93;;
52922;SDS011;38796;42.702;23.306;2022-09-09T07:02:11;6.80;;;3.10;;
52922;SDS011;38796;42.702;23.306;2022-09-09T07:04:09;6.00;;;2.80;;
52922;SDS011;38796;42.702;23.306;2022-09-09T07:08:13;6.33;;;2.50;;
52922;SDS011;38796;42.702;23.306;2022-09-09T07:10:17;9.50;;;2.30;;
52922;SDS011;38796;42.702;23.306;2022-09-09T07:12:15;4.83;;;2.60;;
52922;SDS011;38796;42.702;23.306;2022-09-09T07:14:21;11.03;;;4.67;;
52922;SDS011;38796;42.702;23.306;2022-09-09T07:16:26;6.17;;;2.90;;
52922;SDS011;38796;42.702;23.306;2022-09-09T07:18:27;11.03;;;3.37;;
52922;SDS011;38796;42.702;23.306;2022-09-09T07:20:27;8.20;;;3.50;;
52922;SDS011;38796;42.702;23.306;2022-09-09T07:22:25;4.80;;;2.77;;
52922;SDS011;38796;42.702;23.306;2022-09-09T07:24:24;4.73;;;2.97;;
52922;SDS011;38796;42.702;23.306;2022-09-09T07:26:28;7.20;;;3.23;;
52922;SDS011;38796;42.702;23.306;2022-09-09T07:28:28;8.00;;;3.27;;
52922;SDS011;38796;42.702;23.306;2022-09-09T07:30:28;9.53;;;3.63;;
52922;SDS011;38796;42.702;23.306;2022-09-09T07:32:26;5.57;;;2.83;;
52922;SDS011;38796;42.702;23.306;2022-09-09T07:34:27;10.87;;;3.90;;
52922;SDS011;38796;42.702;23.306;2022-09-09T07:36:26;9.87;;;3.07;;
52922;SDS011;38796;42.702;23.306;2022-09-09T07:38:29;8.97;;;3.70;;
52922;SDS011;38796;42.702;23.306;2022-09-09T07:40:29;8.67;;;3.53;;
52922;SDS011;38796;42.702;23.306;2022-09-09T07:42:28;10.27;;;2.97;;
52922;SDS011;38796;42.702;23.306;2022-09-09T07:44:27;8.50;;;3.63;;
52922;SDS011;38796;42.702;23.306;2022-09-09T07:46:30;5.03;;;3.58;;
52922;SDS011;38796;42.702;23.306;2022-09-09T07:48:28;5.50;;;3.23;;
52922;SDS011;38796;42.702;23.306;2022-09-09T07:50:27;12.30;;;3.80;;
52922;SDS011;38796;42.702;23.306;2022-09-09T07:52:25;7.80;;;2.93;;
52922;SDS011;38796;42.702;23.306;2022-09-09T07:54:28;4.20;;;3.43;;
52922;SDS011;38796;42.702;23.306;2022-09-09T07:56:31;4.50;;;3.23;;
52922;SDS011;38796;42.702;23.306;2022-09-09T07:58:30;11.83;;;3.00;;
52922;SDS011;38796;42.702;23.306;2022-09-09T08:02:32;9.52;;;2.90;;
52922;SDS011;38796;42.702;23.306;2022-09-09T08:04:30;5.20;;;3.00;;
52922;SDS011;38796;42.702;23.306;2022-09-09T08:06:29;7.95;;;4.13;;
52922;SDS011;38796;42.702;23.306;2022-09-09T08:08:29;7.35;;;3.92;;
52922;SDS011;38796;42.702;23.306;2022-09-09T08:10:27;8.83;;;6.57;;
52922;SDS011;38796;42.702;23.306;2022-09-09T08:12:27;9.67;;;3.40;;
52922;SDS011;38796;42.702;23.306;2022-09-09T08:14:26;6.87;;;3.20;;
52922;SDS011;38796;42.702;23.306;2022-09-09T08:16:26;5.00;;;3.17;;
52922;SDS011;38796;42.702;23.306;2022-09-09T08:18:26;7.97;;;2.80;;
52922;SDS011;38796;42.702;23.306;2022-09-09T08:20:24;5.90;;;3.47;;
52922;SDS011;38796;42.702;23.306;2022-09-09T08:22:23;8.37;;;3.43;;
52922;SDS011;38796;42.702;23.306;2022-09-09T08:24:21;6.13;;;3.10;;
52922;SDS011;38796;42.702;23.306;2022-09-09T08:26:21;8.00;;;3.00;;
52922;SDS011;38796;42.702;23.306;2022-09-09T08:28:21;5.40;;;2.40;;
52922;SDS011;38796;42.702;23.306;2022-09-09T08:30:19;5.57;;;3.17;;
52922;SDS011;38796;42.702;23.306;2022-09-09T08:32:17;13.52;;;3.35;;
52922;SDS011;38796;42.702;23.306;2022-09-09T08:34:15;21.83;;;4.65;;
52922;SDS011;38796;42.702;23.306;2022-09-09T08:36:16;12.60;;;3.70;;
52922;SDS011;38796;42.702;23.306;2022-09-09T08:38:14;9.10;;;6.47;;
52922;SDS011;38796;42.702;23.306;2022-09-09T08:40:28;7.20;;;2.28;;
52922;SDS011;38796;42.702;23.306;2022-09-09T08:42:32;9.63;;;5.78;;
52922;SDS011;38796;42.702;23.306;2022-09-09T08:44:39;23.60;;;19.75;;
52922;SDS011;38796;42.702;23.306;2022-09-09T08:46:46;6.20;;;3.47;;
52922;SDS011;38796;42.702;23.306;2022-09-09T08:48:49;4.05;;;2.13;;
52922;SDS011;38796;42.702;23.306;2022-09-09T08:50:49;7.55;;;2.35;;
52922;SDS011;38796;42.702;23.306;2022-09-09T08:52:55;3.08;;;2.15;;
52922;SDS011;38796;42.702;23.306;2022-09-09T08:54:55;9.10;;;2.72;;
52922;SDS011;38796;42.702;23.306;2022-09-09T08:56:55;8.77;;;3.78;;
52922;SDS011;38796;42.702;23.306;2022-09-09T08:58:54;5.82;;;2.90;;
52922;SDS011;38796;42.702;23.306;2022-09-09T09:01:24;14.00;;;3.50;;
52922;SDS011;38796;42.702;23.306;2022-09-09T09:03:30;11.15;;;3.72;;
52922;SDS011;38796;42.702;23.306;2022-09-09T09:05:33;3.75;;;2.63;;
52922;SDS011;38796;42.702;23.306;2022-09-09T09:07:40;7.68;;;3.45;;
52922;SDS011;38796;42.702;23.306;2022-09-09T09:09:43;6.53;;;2.67;;
52922;SDS011;38796;42.702;23.306;2022-09-09T09:11:44;7.18;;;2.60;;
52922;SDS011;38796;42.702;23.306;2022-09-09T09:13:45;5.45;;;3.45;;
52922;SDS011;38796;42.702;23.306;2022-09-09T09:15:48;4.70;;;2.67;;
52922;SDS011;38796;42.702;23.306;2022-09-09T09:17:49;7.40;;;2.67;;
52922;SDS011;38796;42.702;23.306;2022-09-09T09:19:48;7.53;;;2.47;;
52922;SDS011;38796;42.702;23.306;2022-09-09T09:21:48;8.32;;;2.75;;
52922;SDS011;38796;42.702;23.306;2022-09-09T09:23:49;4.03;;;2.80;;
52922;SDS011;38796;42.702;23.306;2022-09-09T09:25:52;8.52;;;3.22;;
52922;SDS011;38796;42.702;23.306;2022-09-09T09:27:57;7.25;;;2.78;;
52922;SDS011;38796;42.702;23.306;2022-09-09T09:29:59;5.60;;;3.03;;
52922;SDS011;38796;42.702;23.306;2022-09-09T09:32:18;3.85;;;3.38;;
52922;SDS011;38796;42.702;23.306;2022-09-09T09:34:18;6.50;;;3.75;;
52922;SDS011;38796;42.702;23.306;2022-09-09T09:36:17;8.63;;;3.65;;
52922;SDS011;38796;42.702;23.306;2022-09-09T09:38:17;8.98;;;3.53;;
52922;SDS011;38796;42.702;23.306;2022-09-09T09:40:37;16.35;;;4.15;;
52922;SDS011;38796;42.702;23.306;2022-09-09T09:42:35;9.43;;;2.97;;
52922;SDS011;38796;42.702;23.306;2022-09-09T09:44:33;10.43;;;2.95;;
52922;SDS011;38796;42.702;23.306;2022-09-09T09:46:40;7.15;;;3.30;;
52922;SDS011;38796;42.702;23.306;2022-09-09T09:48:41;4.82;;;3.05;;
52922;SDS011;38796;42.702;23.306;2022-09-09T09:50:48;4.07;;;3.17;;
52922;SDS011;38796;42.702;23.306;2022-09-09T09:52:53;19.10;;;3.53;;
52922;SDS011;38796;42.702;23.306;2022-09-09T09:54:52;14.68;;;7.05;;
52922;SDS011;38796;42.702;23.306;2022-09-09T09:56:50;16.73;;;4.93;;
52922;SDS011;38796;42.702;23.306;2022-09-09T09:58:49;4.75;;;2.78;;
52922;SDS011;38796;42.702;23.306;2022-09-09T10:00:53;3.88;;;3.33;;
52922;SDS011;38796;42.702;23.306;2022-09-09T10:02:55;5.95;;;2.78;;
52922;SDS011;38796;42.702;23.306;2022-09-09T10:05:03;13.13;;;3.28;;
52922;SDS011;38796;42.702;23.306;2022-09-09T10:07:11;7.22;;;3.42;;
52922;SDS011;38796;42.702;23.306;2022-09-09T10:09:18;21.13;;;14.48;;
52922;SDS011;38796;42.702;23.306;2022-09-09T10:11:23;12.93;;;9.57;;
52922;SDS011;38796;42.702;23.306;2022-09-09T10:13:26;11.43;;;6.45;;
52922;SDS011;38796;42.702;23.306;2022-09-09T10:15:30;13.52;;;4.05;;
52922;SDS011;38796;42.702;23.306;2022-09-09T10:17:30;6.53;;;3.88;;
52922;SDS011;38796;42.702;23.306;2022-09-09T10:19:32;6.22;;;3.53;;
52922;SDS011;38796;42.702;23.306;2022-09-09T10:21:38;9.00;;;3.35;;
52922;SDS011;38796;42.702;23.306;2022-09-09T10:23:50;14.80;;;3.50;;
52922;SDS011;38796;42.702;23.306;2022-09-09T10:25:55;28.07;;;8.57;;
52922;SDS011;38796;42.702;23.306;2022-09-09T10:28:04;10.17;;;4.40;;
52922;SDS011;38796;42.702;23.306;2022-09-09T10:30:10;20.93;;;5.47;;
52922;SDS011;38796;42.702;23.306;2022-09-09T10:32:14;14.53;;;4.30;;
52922;SDS011;38796;42.702;23.306;2022-09-09T10:34:19;13.73;;;4.50;;
52922;SDS011;38796;42.702;23.306;2022-09-09T10:36:19;6.70;;;3.93;;
52922;SDS011;38796;42.702;23.306;2022-09-09T10:38:18;10.63;;;4.67;;
52922;SDS011;38796;42.702;23.306;2022-09-09T10:40:26;13.43;;;4.53;;
52922;SDS011;38796;42.702;23.306;2022-09-09T10:42:27;16.13;;;6.67;;
52922;SDS011;38796;42.702;23.306;2022-09-09T10:47:00;9.13;;;5.30;;
52922;SDS011;38796;42.702;23.306;2022-09-09T10:49:08;15.73;;;5.50;;
52922;SDS011;38796;42.702;23.306;2022-09-09T10:51:18;12.53;;;5.50;;
52922;SDS011;38796;42.702;23.306;2022-09-09T10:53:22;12.23;;;5.30;;
52922;SDS011;38796;42.702;23.306;2022-09-09T10:55:24;10.67;;;5.63;;
52922;SDS011;38796;42.702;23.306;2022-09-09T10:59:25;11.57;;;5.60;;
52922;SDS011;38796;42.702;23.306;2022-09-09T11:01:25;16.40;;;4.93;;
52922;SDS011;38796;42.702;23.306;2022-09-09T11:03:26;21.77;;;4.00;;
52922;SDS011;38796;42.702;23.306;2022-09-09T11:05:27;19.20;;;6.07;;
52922;SDS011;38796;42.702;23.306;2022-09-09T11:07:28;20.73;;;5.82;;
52922;SDS011;38796;42.702;23.306;2022-09-09T11:09:28;14.83;;;4.67;;
52922;SDS011;38796;42.702;23.306;2022-09-09T11:11:32;17.00;;;5.20;;
52922;SDS011;38796;42.702;23.306;2022-09-09T11:13:33;14.43;;;4.50;;
52922;SDS011;38796;42.702;23.306;2022-09-09T11:15:35;9.63;;;4.50;;
52922;SDS011;38796;42.702;23.306;2022-09-09T11:17:36;13.80;;;5.50;;
52922;SDS011;38796;42.702;23.306;2022-09-09T11:19:38;11.02;;;4.22;;
52922;SDS011;38796;42.702;23.306;2022-09-09T11:21:37;11.03;;;4.07;;
52922;SDS011;38796;42.702;23.306;2022-09-09T11:23:38;32.90;;;5.90;;
52922;SDS011;38796;42.702;23.306;2022-09-09T11:25:38;8.32;;;5.00;;
52922;SDS011;38796;42.702;23.306;2022-09-09T11:27:41;22.35;;;5.13;;
52922;SDS011;38796;42.702;23.306;2022-09-09T11:29:47;32.20;;;5.70;;
52922;SDS011;38796;42.702;23.306;2022-09-09T11:31:50;18.35;;;5.10;;
52922;SDS011;38796;42.702;23.306;2022-09-09T11:33:55;15.00;;;4.43;;
52922;SDS011;38796;42.702;23.306;2022-09-09T11:36:01;24.90;;;5.50;;
52922;SDS011;38796;42.702;23.306;2022-09-09T11:40:17;7.97;;;3.90;;
52922;SDS011;38796;42.702;23.306;2022-09-09T11:42:17;14.23;;;4.43;;
52922;SDS011;38796;42.702;23.306;2022-09-09T11:44:19;10.88;;;4.50;;
52922;SDS011;38796;42.702;23.306;2022-09-09T11:46:22;11.75;;;4.93;;
52922;SDS011;38796;42.702;23.306;2022-09-09T11:48:33;14.55;;;4.25;;
52922;SDS011;38796;42.702;23.306;2022-09-09T11:50:35;11.82;;;4.03;;
52922;SDS011;38796;42.702;23.306;2022-09-09T11:52:36;5.45;;;4.10;;
52922;SDS011;38796;42.702;23.306;2022-09-09T11:54:44;8.25;;;4.38;;
52922;SDS011;38796;42.702;23.306;2022-09-09T11:56:44;16.85;;;5.00;;
52922;SDS011;38796;42.702;23.306;2022-09-09T11:58:43;10.25;;;4.30;;
52922;SDS011;38796;42.702;23.306;2022-09-09T12:00:44;5.97;;;4.13;;
52922;SDS011;38796;42.702;23.306;2022-09-09T12:02:48;17.67;;;4.18;;
52922;SDS011;38796;42.702;23.306;2022-09-09T12:04:47;11.18;;;4.72;;